Time;durP1;ratioP1;P1;durP2;ratioP2;P2;SDS_P1;SDS_P2;PMS_P1;PMS_P2;Temp;Humidity;BMP_temperature;BMP_pressure;BME280_temperature;BME280_humidity;BME280_pressure;Samples;Min_cycle;Max_cycle;Signal;HPM_P1;HPM_P2
2022/04/10 00:01:27;;;;;;;0.90;0.60;;;5.10;1.00;;;;;;5114289;28;20506;-55
2022/04/10 00:03:56;;;;;;;2.10;0.70;;;5.00;1.00;;;;;;5112731;28;20862;-55
2022/04/10 00:06:23;;;;;;;0.90;0.60;;;5.00;1.00;;;;;;5115482;28;20420;-57
2022/04/10 00:08:51;;;;;;;0.90;0.60;;;5.00;1.00;;;;;;5114928;28;20467;-55
2022/04/10 00:11:18;;;;;;;2.30;0.70;;;4.90;1.00;;;;;;5113993;28;20481;-55
2022/04/10 00:13:45;;;;;;;1.60;0.93;;;4.90;1.00;;;;;;5114509;28;20421;-56
2022/04/10 00:16:13;;;;;;;2.20;0.60;;;4.80;1.00;;;;;;5114681;28;20525;-57
2022/04/10 00:18:40;;;;;;;1.20;0.70;;;5.10;1.00;;;;;;5115973;28;20428;-56
2022/04/10 00:21:08;;;;;;;1.95;0.70;;;5.10;1.00;;;;;;5113133;28;20459;-57
2022/04/10 00:23:35;;;;;;;1.50;0.60;;;5.00;1.00;;;;;;5111041;28;20451;-57
2022/04/10 00:26:02;;;;;;;0.80;0.60;;;5.10;1.00;;;;;;5112747;28;20772;-57
2022/04/10 00:28:29;;;;;;;1.70;0.60;;;5.20;1.00;;;;;;5113744;28;20514;-57
2022/04/10 00:30:56;;;;;;;1.17;0.55;;;5.30;1.00;;;;;;5112059;28;20485;-55
2022/04/10 00:33:23;;;;;;;1.10;0.52;;;5.30;1.00;;;;;;5114275;28;20420;-54
2022/04/10 00:35:50;;;;;;;0.82;0.60;;;5.30;1.00;;;;;;5115019;28;20424;-51
2022/04/10 00:38:20;;;;;;;1.40;0.50;;;5.20;99.90;;;;;;5115440;28;20485;-55
2022/04/10 00:40:47;;;;;;;0.93;0.50;;;5.10;1.00;;;;;;5113596;28;20445;-53
2022/04/10 00:43:15;;;;;;;2.30;0.70;;;5.00;1.00;;;;;;5113567;28;20432;-53
2022/04/10 00:45:42;;;;;;;1.80;0.63;;;5.10;1.00;;;;;;5115805;28;20424;-54
2022/04/10 00:48:10;;;;;;;2.10;0.70;;;5.10;1.00;;;;;;5114015;28;20463;-54
2022/04/10 00:51:39;;;;;;;2.03;0.60;;;5.10;1.00;;;;;;5113272;28;20467;-53
2022/04/10 00:53:26;;;;;;;2.20;0.60;;;5.10;1.00;;;;;;5112654;28;20416;-52
2022/04/10 00:55:53;;;;;;;0.80;0.50;;;5.30;1.00;;;;;;5115237;28;20451;-54
2022/04/10 00:58:20;;;;;;;1.50;0.60;;;5.20;99.90;;;;;;5114544;28;20514;-54
2022/04/10 01:00:47;;;;;;;1.10;0.57;;;5.20;99.90;;;;;;5113165;28;20432;-54
2022/04/10 01:03:14;;;;;;;1.30;0.60;;;5.20;99.90;;;;;;5112509;28;20730;-55
2022/04/10 01:05:43;;;;;;;0.90;0.50;;;5.30;1.00;;;;;;5114111;28;20735;-55
2022/04/10 01:08:10;;;;;;;1.05;0.60;;;5.30;99.90;;;;;;5113699;28;20424;-55
2022/04/10 01:10:38;;;;;;;1.52;0.60;;;5.20;16.20;;;;;;5113665;28;20428;-55
2022/04/10 01:13:06;;;;;;;0.98;0.52;;;5.20;99.90;;;;;;5113906;28;20533;-56
2022/04/10 01:15:32;;;;;;;1.38;0.50;;;5.10;1.00;;;;;;5113605;28;20817;-55
2022/04/10 01:17:59;;;;;;;0.90;0.60;;;5.10;1.00;;;;;;5114684;28;20431;-54
2022/04/10 01:20:27;;;;;;;1.23;0.60;;;5.10;99.90;;;;;;5113347;28;20515;-55
2022/04/10 01:22:56;;;;;;;1.10;0.70;;;5.20;1.00;;;;;;5115412;28;20417;-55
2022/04/10 01:25:22;;;;;;;0.90;0.50;;;5.10;99.90;;;;;;5115893;28;20428;-51
2022/04/10 01:27:49;;;;;;;1.90;0.50;;;5.10;1.00;;;;;;5114230;28;20456;-54
2022/04/10 01:30:16;;;;;;;0.80;0.60;;;5.10;1.00;;;;;;5113918;28;20428;-52
2022/04/10 01:32:44;;;;;;;1.48;0.55;;;5.10;99.90;;;;;;5115277;28;20420;-53
2022/04/10 01:35:11;;;;;;;1.10;0.50;;;5.00;99.90;;;;;;5116000;28;20847;-54
2022/04/10 01:37:39;;;;;;;1.50;0.60;;;5.10;1.00;;;;;;5117368;28;20419;-53
2022/04/10 01:40:08;;;;;;;1.20;0.70;;;5.20;1.00;;;;;;5117993;28;20432;-55
2022/04/10 01:42:36;;;;;;;1.50;0.70;;;5.10;1.00;;;;;;5118693;28;20566;-53
2022/04/10 01:45:03;;;;;;;1.30;0.60;;;5.10;1.00;;;;;;5117744;28;20423;-52
2022/04/10 01:47:30;;;;;;;3.00;0.60;;;5.20;1.00;;;;;;5115946;28;20597;-56
2022/04/10 01:49:57;;;;;;;1.20;0.60;;;5.30;1.00;;;;;;5118745;28;20510;-56
2022/04/10 01:52:23;;;;;;;1.00;0.60;;;5.40;1.00;;;;;;5118491;28;20475;-54
2022/04/10 01:54:50;;;;;;;0.90;0.60;;;5.40;1.00;;;;;;5118620;28;20863;-54
2022/04/10 01:57:19;;;;;;;1.40;0.65;;;5.30;1.00;;;;;;5115619;28;20511;-53
2022/04/10 01:59:45;;;;;;;1.58;0.70;;;5.30;1.00;;;;;;5118924;28;20459;-54
2022/04/10 02:02:12;;;;;;;1.20;0.60;;;5.30;1.00;;;;;;5118954;28;20861;-56
2022/04/10 02:04:39;;;;;;;1.27;0.80;;;5.30;1.00;;;;;;5118515;28;20505;-54
2022/04/10 02:07:06;;;;;;;1.55;0.68;;;5.20;1.00;;;;;;5116008;28;20510;-55
2022/04/10 02:09:33;;;;;;;1.27;0.68;;;5.10;1.00;;;;;;5118787;28;20532;-55
2022/04/10 02:12:00;;;;;;;1.20;0.60;;;5.10;1.00;;;;;;5117888;28;20916;-55
2022/04/10 02:14:28;;;;;;;1.00;0.70;;;5.10;1.00;;;;;;5117338;28;20561;-53
2022/04/10 02:16:55;;;;;;;2.00;0.60;;;5.20;1.00;;;;;;5116716;28;20879;-52
2022/04/10 02:19:22;;;;;;;1.38;0.60;;;5.10;1.00;;;;;;5118129;28;20814;-55
2022/04/10 02:21:49;;;;;;;1.90;0.70;;;5.10;1.00;;;;;;5118324;28;20781;-56
2022/04/10 02:24:16;;;;;;;1.10;0.70;;;5.10;1.00;;;;;;5117445;28;20876;-55
2022/04/10 02:26:43;;;;;;;1.57;0.70;;;5.00;1.00;;;;;;5116033;28;20432;-54
2022/04/10 02:29:10;;;;;;;1.40;0.70;;;5.00;1.00;;;;;;5118029;28;20428;-55
2022/04/10 02:31:38;;;;;;;1.40;0.75;;;5.00;1.00;;;;;;5116962;28;20459;-56
2022/04/10 02:34:05;;;;;;;1.00;0.70;;;4.90;1.00;;;;;;5114667;28;20432;-55
2022/04/10 02:36:32;;;;;;;1.20;0.80;;;4.80;1.00;;;;;;5114120;28;20551;-60
2022/04/10 02:38:59;;;;;;;1.17;0.60;;;4.90;1.00;;;;;;5115743;28;20518;-56
2022/04/10 02:41:26;;;;;;;1.77;0.60;;;4.90;1.00;;;;;;5115892;28;20493;-54
2022/04/10 02:43:53;;;;;;;1.50;0.70;;;4.90;1.00;;;;;;5113273;28;20633;-54
2022/04/10 02:46:20;;;;;;;2.30;0.80;;;4.90;1.00;;;;;;5115888;28;20511;-54
2022/04/10 02:48:48;;;;;;;1.40;0.80;;;4.80;1.00;;;;;;5117707;28;20459;-53
2022/04/10 02:51:15;;;;;;;1.00;0.70;;;4.80;1.00;;;;;;5116252;28;20875;-53
2022/04/10 02:53:42;;;;;;;1.10;0.70;;;4.80;1.00;;;;;;5116747;28;20495;-56
2022/04/10 02:56:09;;;;;;;1.42;0.70;;;4.80;1.00;;;;;;5115537;28;20522;-54
2022/04/10 02:58:36;;;;;;;1.50;0.70;;;4.80;1.00;;;;;;5116204;28;20513;-54
2022/04/10 03:01:03;;;;;;;1.73;0.70;;;4.80;1.00;;;;;;5115821;27;20511;-56
2022/04/10 03:03:30;;;;;;;1.00;0.65;;;4.80;1.00;;;;;;5116009;28;20436;-54
2022/04/10 03:05:58;;;;;;;1.80;0.77;;;4.70;1.00;;;;;;5116934;28;20926;-54
2022/04/10 03:08:25;;;;;;;1.63;0.60;;;4.70;1.00;;;;;;5115410;28;20523;-53
2022/04/10 03:10:52;;;;;;;2.10;0.80;;;4.90;1.00;;;;;;5115396;28;20923;-51
2022/04/10 03:13:19;;;;;;;1.10;0.70;;;5.00;1.00;;;;;;5114588;28;20424;-56
2022/04/10 03:15:46;;;;;;;1.60;0.80;;;5.10;1.00;;;;;;5114246;28;20779;-54
2022/04/10 03:18:13;;;;;;;1.20;0.70;;;4.90;1.00;;;;;;5115274;28;20485;-56
2022/04/10 03:20:39;;;;;;;1.90;0.77;;;5.00;1.00;;;;;;5113711;28;20536;-55
2022/04/10 03:23:10;;;;;;;1.98;0.88;;;4.90;1.00;;;;;;5113159;28;20456;-54
2022/04/10 03:25:37;;;;;;;1.15;0.70;;;4.90;1.00;;;;;;5116074;28;20728;-56
2022/04/10 03:28:04;;;;;;;1.40;0.80;;;4.80;1.00;;;;;;5115781;28;20466;-53
2022/04/10 03:30:31;;;;;;;1.30;0.80;;;4.70;1.00;;;;;;5117129;28;20511;-56
2022/04/10 03:32:58;;;;;;;2.00;0.65;;;4.70;1.00;;;;;;5114363;28;20717;-52
2022/04/10 03:35:25;;;;;;;1.77;0.80;;;4.60;1.00;;;;;;5116373;27;20459;-54
2022/04/10 03:37:52;;;;;;;1.20;0.80;;;4.50;1.00;;;;;;5115467;28;20803;-50
2022/04/10 03:40:20;;;;;;;1.30;0.80;;;4.40;1.00;;;;;;5116336;28;20507;-56
2022/04/10 03:42:47;;;;;;;1.80;0.80;;;4.40;1.00;;;;;;5115285;28;20700;-56
2022/04/10 03:45:14;;;;;;;2.17;0.80;;;4.30;1.00;;;;;;5116743;28;20463;-55
2022/04/10 03:47:41;;;;;;;1.73;0.80;;;4.30;1.00;;;;;;5114622;28;20519;-52
2022/04/10 03:50:08;;;;;;;1.40;0.80;;;4.40;1.00;;;;;;5116000;28;20506;-54
2022/04/10 03:52:35;;;;;;;1.30;0.80;;;4.30;1.00;;;;;;5111229;28;20471;-54
2022/04/10 03:55:03;;;;;;;1.20;0.82;;;4.40;1.00;;;;;;5111817;28;20918;-55
2022/04/10 03:57:31;;;;;;;4.10;1.00;;;4.50;1.00;;;;;;5094828;28;20817;-56
2022/04/10 03:59:58;;;;;;;1.02;0.70;;;4.50;1.00;;;;;;5095068;28;20428;-54
2022/04/10 04:02:25;;;;;;;1.17;0.82;;;4.50;1.00;;;;;;5112880;28;20519;-54
2022/04/10 04:04:52;;;;;;;1.90;0.90;;;4.50;1.00;;;;;;5114693;27;20508;-54
2022/04/10 04:07:19;;;;;;;1.95;0.90;;;4.50;1.00;;;;;;5116423;28;20478;-54
2022/04/10 04:09:46;;;;;;;2.60;0.80;;;4.40;1.00;;;;;;5116360;28;20523;-55
2022/04/10 04:12:13;;;;;;;2.00;1.00;;;4.20;1.00;;;;;;5114141;28;20440;-54
2022/04/10 04:14:41;;;;;;;2.50;1.00;;;4.20;1.00;;;;;;5115155;28;20526;-55
2022/04/10 04:17:08;;;;;;;1.50;1.00;;;4.40;1.00;;;;;;5116097;28;20827;-54
2022/04/10 04:19:35;;;;;;;2.60;1.10;;;4.40;1.00;;;;;;5114494;28;20443;-55
2022/04/10 04:22:02;;;;;;;2.30;1.00;;;4.40;1.00;;;;;;5116641;28;20420;-56
2022/04/10 04:24:29;;;;;;;2.70;0.95;;;4.40;1.00;;;;;;5115070;28;20432;-54
2022/04/10 04:26:56;;;;;;;2.60;1.00;;;4.40;1.00;;;;;;5114543;28;20519;-55
2022/04/10 04:29:23;;;;;;;1.40;1.00;;;4.50;1.00;;;;;;5115612;28;20527;-53
2022/04/10 04:31:51;;;;;;;1.13;0.95;;;4.60;1.00;;;;;;5113847;28;20846;-55
2022/04/10 04:34:18;;;;;;;2.47;0.90;;;4.60;1.00;;;;;;5114316;28;20519;-53
2022/04/10 04:36:45;;;;;;;1.80;1.10;;;4.70;1.00;;;;;;5115373;28;20503;-53
2022/04/10 04:39:11;;;;;;;1.90;1.30;;;4.60;1.00;;;;;;5115485;28;20543;-56
2022/04/10 04:41:38;;;;;;;1.20;0.90;;;4.60;1.00;;;;;;5114540;28;20748;-54
2022/04/10 04:44:06;;;;;;;2.80;1.05;;;4.60;1.00;;;;;;5113054;28;20434;-54
2022/04/10 04:46:33;;;;;;;2.53;1.00;;;4.50;1.00;;;;;;5113862;28;20503;-55
2022/04/10 04:49:01;;;;;;;2.47;1.00;;;4.60;1.00;;;;;;5115884;28;20452;-55
2022/04/10 04:51:29;;;;;;;2.20;1.00;;;4.80;1.00;;;;;;5114623;28;20436;-56
2022/04/10 04:53:56;;;;;;;1.20;0.90;;;4.90;1.00;;;;;;5113889;28;20855;-56
2022/04/10 04:56:23;;;;;;;2.00;1.10;;;4.90;1.00;;;;;;5113837;28;20498;-54
2022/04/10 04:58:50;;;;;;;2.10;1.02;;;4.90;1.00;;;;;;5114245;28;20477;-55
2022/04/10 05:01:17;;;;;;;2.28;1.00;;;4.90;1.00;;;;;;5110952;28;20440;-56
2022/04/10 05:03:43;;;;;;;2.03;1.00;;;4.90;1.00;;;;;;5114409;28;20514;-53
2022/04/10 05:06:12;;;;;;;1.30;1.00;;;5.00;1.00;;;;;;5114939;28;20455;-55
2022/04/10 05:08:39;;;;;;;1.90;1.00;;;5.10;1.00;;;;;;5113715;28;20739;-54
2022/04/10 05:11:08;;;;;;;1.40;0.90;;;5.10;99.90;;;;;;5113790;28;20439;-54
2022/04/10 05:13:35;;;;;;;1.30;1.00;;;5.00;99.90;;;;;;5115653;28;20428;-51
2022/04/10 05:16:02;;;;;;;1.38;0.95;;;4.90;1.00;;;;;;5115499;28;20507;-53
2022/04/10 05:18:29;;;;;;;2.10;1.10;;;4.90;1.00;;;;;;5114375;28;20428;-54
2022/04/10 05:20:56;;;;;;;1.17;0.90;;;5.10;1.00;;;;;;5113504;28;20432;-55
2022/04/10 05:23:24;;;;;;;1.40;1.00;;;5.10;99.90;;;;;;5115362;28;20420;-53
2022/04/10 05:25:51;;;;;;;1.40;1.00;;;5.10;99.90;;;;;;5115271;28;20915;-56
2022/04/10 05:28:18;;;;;;;3.10;1.00;;;5.00;1.00;;;;;;5113990;28;20519;-55
2022/04/10 05:30:46;;;;;;;1.77;0.98;;;5.20;1.00;;;;;;5111500;28;20485;-52
2022/04/10 05:33:14;;;;;;;1.42;0.90;;;5.10;1.00;;;;;;5114345;28;20451;-53
2022/04/10 05:35:41;;;;;;;1.20;1.00;;;5.10;99.90;;;;;;5111888;28;20927;-54
2022/04/10 05:38:08;;;;;;;2.50;1.08;;;5.10;99.90;;;;;;5109672;28;20448;-52
2022/04/10 05:40:37;;;;;;;1.80;1.00;;;5.30;99.90;;;;;;5094580;28;20495;-53
2022/04/10 05:43:04;;;;;;;1.42;0.80;;;5.30;99.90;;;;;;5114293;28;20439;-56
2022/04/10 05:45:31;;;;;;;1.30;0.90;;;5.40;1.00;;;;;;5105632;28;20861;-54
2022/04/10 05:47:57;;;;;;;1.90;0.90;;;5.50;1.00;;;;;;5094608;28;20429;-55
2022/04/10 05:50:24;;;;;;;1.50;1.00;;;5.50;99.90;;;;;;5104791;28;20465;-55
2022/04/10 05:52:51;;;;;;;1.60;0.90;;;5.50;1.00;;;;;;5093521;28;20453;-56
2022/04/10 05:55:19;;;;;;;2.13;1.08;;;5.50;1.00;;;;;;5104392;28;20732;-54
2022/04/10 05:57:48;;;;;;;1.50;0.90;;;5.50;1.00;;;;;;5113339;28;20503;-55
2022/04/10 06:00:17;;;;;;;3.05;0.98;;;5.50;99.90;;;;;;5110313;28;20444;-56
2022/04/10 06:02:44;;;;;;;1.53;0.90;;;5.50;1.00;;;;;;5113114;28;20452;-54
2022/04/10 06:05:11;;;;;;;1.77;1.00;;;5.50;1.00;;;;;;5113784;28;20470;-56
2022/04/10 06:07:37;;;;;;;1.30;0.90;;;5.70;1.00;;;;;;5112760;28;20439;-59
2022/04/10 06:10:06;;;;;;;2.50;0.90;;;5.50;99.90;;;;;;5113265;28;20481;-55
2022/04/10 06:12:33;;;;;;;1.50;0.90;;;5.60;99.90;;;;;;5115088;28;20473;-56
2022/04/10 06:15:01;;;;;;;1.90;1.00;;;5.70;99.90;;;;;;5115082;28;20477;-55
2022/04/10 06:17:29;;;;;;;1.42;0.90;;;5.80;99.90;;;;;;5112430;28;20459;-56
2022/04/10 06:19:56;;;;;;;1.95;0.90;;;5.80;1.00;;;;;;5112848;28;20534;-55
2022/04/10 06:22:24;;;;;;;1.70;1.00;;;5.80;1.00;;;;;;5115413;28;20411;-52
2022/04/10 06:24:51;;;;;;;1.40;0.80;;;5.90;99.90;;;;;;5116225;28;20459;-56
2022/04/10 06:27:18;;;;;;;2.20;0.80;;;5.90;99.90;;;;;;5116594;28;20506;-53
2022/04/10 06:29:45;;;;;;;1.98;0.93;;;6.00;1.00;;;;;;5098035;28;20497;-56
2022/04/10 06:32:13;;;;;;;1.10;0.80;;;6.00;99.90;;;;;;5097821;28;20414;-52
2022/04/10 06:34:40;;;;;;;1.20;0.90;;;6.00;99.90;;;;;;5097952;28;20469;-53
2022/04/10 06:37:08;;;;;;;1.98;0.80;;;6.00;1.00;;;;;;5115078;28;20519;-56
2022/04/10 06:39:35;;;;;;;1.33;0.88;;;6.10;1.00;;;;;;5117358;28;20843;-56
2022/04/10 06:42:05;;;;;;;2.50;0.80;;;6.20;1.00;;;;;;5117521;28;20451;-55
2022/04/10 06:44:32;;;;;;;1.20;0.80;;;6.20;1.00;;;;;;5115643;28;20542;-54
2022/04/10 06:46:59;;;;;;;1.30;0.80;;;6.30;1.00;;;;;;5116184;28;20416;-55
2022/04/10 06:49:27;;;;;;;2.20;0.80;;;6.50;99.90;;;;;;5117253;28;20515;-56
2022/04/10 06:51:54;;;;;;;1.50;0.90;;;6.40;99.90;;;;;;5117925;28;20436;-55
2022/04/10 06:54:21;;;;;;;1.90;0.80;;;6.10;99.90;;;;;;5115774;28;20504;-57
2022/04/10 06:56:48;;;;;;;1.10;0.80;;;6.10;33.50;;;;;;5117629;28;20408;-55
2022/04/10 06:59:15;;;;;;;1.48;0.90;;;6.40;99.90;;;;;;5117488;28;20859;-55
2022/04/10 07:01:42;;;;;;;1.40;0.80;;;6.70;1.00;;;;;;5117248;28;20800;-57
2022/04/10 07:04:09;;;;;;;1.83;0.80;;;6.90;1.00;;;;;;5114696;28;20799;-56
2022/04/10 07:06:37;;;;;;;1.30;0.90;;;6.90;1.00;;;;;;5116966;28;20485;-55
2022/04/10 07:09:04;;;;;;;1.10;0.80;;;7.10;1.00;;;;;;5117284;28;20888;-54
2022/04/10 07:11:32;;;;;;;1.98;0.77;;;7.10;1.00;;;;;;5117768;28;20451;-58
2022/04/10 07:13:59;;;;;;;1.30;0.80;;;7.10;1.00;;;;;;5114391;28;20464;-56
2022/04/10 07:16:26;;;;;;;1.10;0.80;;;7.20;1.00;;;;;;5117410;28;20419;-56
2022/04/10 07:18:53;;;;;;;1.10;0.80;;;7.30;1.00;;;;;;5117381;28;20820;-53
2022/04/10 07:23:41;;;;;;;1.50;0.90;;;7.40;1.00;;;;;;5116333;28;20859;-56
2022/04/10 07:24:09;;;;;;;1.00;0.80;;;7.60;99.90;;;;;;5115644;28;20431;-54
2022/04/10 07:26:36;;;;;;;1.77;0.80;;;7.80;99.90;;;;;;5116878;28;20490;-56
2022/04/10 07:29:03;;;;;;;1.20;0.80;;;7.90;99.90;;;;;;5115577;28;20416;-55
2022/04/10 07:31:31;;;;;;;1.50;0.80;;;7.90;99.90;;;;;;5114314;28;20436;-56
2022/04/10 07:33:58;;;;;;;1.73;0.80;;;7.90;99.90;;;;;;5113146;28;20944;-57
2022/04/10 07:36:25;;;;;;;1.55;0.90;;;7.70;99.90;;;;;;5115283;27;20850;-57
2022/04/10 07:38:52;;;;;;;1.10;0.80;;;7.90;99.90;;;;;;5114392;28;20698;-56
2022/04/10 07:41:20;;;;;;;1.40;0.80;;;7.80;99.90;;;;;;5110877;28;20462;-58
2022/04/10 07:43:47;;;;;;;1.13;0.82;;;8.00;99.90;;;;;;5109124;28;20428;-57
2022/04/10 07:48:58;;;;;;;3.58;0.80;;;8.00;99.90;;;;;;5110347;28;20428;-55
2022/04/10 07:51:26;;;;;;;0.93;0.70;;;7.80;99.90;;;;;;5115099;28;20585;-56
2022/04/10 07:53:54;;;;;;;1.40;0.80;;;7.90;99.90;;;;;;5114379;28;20439;-56
2022/04/10 07:56:22;;;;;;;1.38;0.80;;;8.00;99.90;;;;;;5113892;28;20759;-57
2022/04/10 07:58:49;;;;;;;1.38;0.80;;;8.30;90.30;;;;;;5104166;28;20459;-58
2022/04/10 08:01:16;;;;;;;1.10;0.70;;;8.50;23.70;;;;;;5112418;28;20551;-58
2022/04/10 08:03:43;;;;;;;1.50;0.80;;;8.80;1.00;;;;;;5115546;28;20526;-57
2022/04/10 08:06:10;;;;;;;1.98;0.80;;;8.70;1.00;;;;;;5106949;28;20436;-54
2022/04/10 08:08:37;;;;;;;1.20;0.80;;;8.30;1.00;;;;;;5103554;28;20439;-57
2022/04/10 08:11:06;;;;;;;1.37;0.87;;;8.40;1.00;;;;;;5113246;28;20960;-59
2022/04/10 08:13:34;;;;;;;1.30;0.90;;;8.50;1.00;;;;;;5114457;28;20464;-56
2022/04/10 08:16:01;;;;;;;1.20;0.80;;;8.80;1.00;;;;;;5112002;28;20485;-59
2022/04/10 08:18:28;;;;;;;1.30;0.80;;;8.80;1.00;;;;;;5106716;28;20432;-56
2022/04/10 08:20:55;;;;;;;1.13;0.80;;;8.90;1.00;;;;;;5111905;28;20811;-57
2022/04/10 08:23:22;;;;;;;1.85;0.80;;;8.70;1.00;;;;;;5112887;28;20463;-58
2022/04/10 08:25:49;;;;;;;1.50;0.80;;;8.70;1.00;;;;;;5113093;28;20430;-59
2022/04/10 08:28:17;;;;;;;1.40;0.80;;;8.90;1.00;;;;;;5111116;28;20509;-58
2022/04/10 08:30:45;;;;;;;1.25;0.80;;;8.80;1.00;;;;;;5114981;28;20420;-58
2022/04/10 08:33:12;;;;;;;2.03;0.80;;;9.00;1.00;;;;;;5114456;28;20428;-58
2022/04/10 08:35:39;;;;;;;1.70;0.90;;;9.10;1.00;;;;;;5111138;28;20494;-56
2022/04/10 08:38:06;;;;;;;2.13;0.70;;;8.80;1.00;;;;;;5109127;28;20440;-56
2022/04/10 08:40:33;;;;;;;1.10;0.70;;;8.90;1.00;;;;;;5109610;28;20878;-58
2022/04/10 08:43:02;;;;;;;1.92;0.90;;;9.10;1.00;;;;;;5110509;28;20514;-58
2022/04/10 08:45:29;;;;;;;1.17;0.80;;;9.00;1.00;;;;;;5110901;28;20435;-57
2022/04/10 08:47:57;;;;;;;1.42;0.80;;;9.00;1.00;;;;;;5110374;28;20436;-56
2022/04/10 08:50:26;;;;;;;1.70;0.70;;;9.00;1.00;;;;;;5113938;28;20506;-59
2022/04/10 08:52:56;;;;;;;0.93;0.65;;;9.20;1.00;;;;;;5105356;28;20601;-58
2022/04/10 08:55:23;;;;;;;1.20;0.70;;;9.30;1.00;;;;;;5111199;28;20527;-55
2022/04/10 08:57:50;;;;;;;1.45;0.70;;;9.30;1.00;;;;;;5113253;28;20785;-58
2022/04/10 09:00:19;;;;;;;1.30;0.80;;;9.20;1.00;;;;;;5113609;28;20522;-59
2022/04/10 09:02:50;;;;;;;1.30;0.73;;;9.10;1.00;;;;;;5112264;28;20918;-58
2022/04/10 09:05:19;;;;;;;1.80;0.70;;;9.20;1.00;;;;;;5111335;28;20418;-58
2022/04/10 09:08:11;;;;;;;1.15;0.70;;;9.40;1.00;;;;;;5112962;28;20553;-59
2022/04/10 09:10:58;;;;;;;1.38;0.80;;;9.80;1.00;;;;;;5106772;28;20743;-59
2022/04/10 09:13:27;;;;;;;1.08;0.70;;;10.00;1.00;;;;;;5107831;28;20444;-57
2022/04/10 09:16:01;;;;;;;1.95;0.80;;;9.80;1.00;;;;;;5105857;28;20420;-58
2022/04/10 09:18:28;;;;;;;1.30;0.70;;;9.80;1.00;;;;;;5111904;28;20432;-57
2022/04/10 09:21:08;;;;;;;1.30;0.80;;;9.70;1.00;;;;;;5106734;28;20439;-59
2022/04/10 09:23:35;;;;;;;1.00;0.70;;;9.70;1.00;;;;;;5111347;28;20432;-58
2022/04/10 09:26:02;;;;;;;1.10;0.80;;;9.90;1.00;;;;;;5113012;28;20507;-56
2022/04/10 09:28:43;;;;;;;1.10;0.70;;;9.70;1.00;;;;;;5111368;28;20908;-58
2022/04/10 09:31:32;;;;;;;2.13;0.70;;;9.80;1.00;;;;;;5110613;28;20416;-57
2022/04/10 09:34:01;;;;;;;1.02;0.80;;;9.20;1.00;;;;;;5108964;28;20867;-58
2022/04/10 09:36:40;;;;;;;1.30;0.63;;;8.90;1.00;;;;;;5108030;28;20504;-58
2022/04/10 09:39:09;;;;;;;1.30;0.70;;;8.80;1.00;;;;;;5104687;28;20473;-60
2022/04/10 09:41:37;;;;;;;1.27;0.70;;;8.80;1.00;;;;;;5108605;28;20516;-57
2022/04/10 09:44:17;;;;;;;1.10;0.70;;;8.90;1.00;;;;;;5111054;28;20756;-58
2022/04/10 09:46:44;;;;;;;1.30;0.70;;;8.80;1.00;;;;;;5110771;28;20527;-58
2022/04/10 09:49:19;;;;;;;1.45;0.70;;;8.90;1.00;;;;;;5109605;28;20827;-58
2022/04/10 09:52:01;;;;;;;2.17;0.60;;;8.90;1.00;;;;;;5101049;28;20431;-60
2022/04/10 09:54:37;;;;;;;1.00;0.60;;;9.20;1.00;;;;;;5110150;28;20497;-60
2022/04/10 09:57:05;;;;;;;1.00;0.60;;;9.30;1.00;;;;;;5106581;28;20472;-59
2022/04/10 09:59:37;;;;;;;1.10;0.60;;;9.80;1.00;;;;;;5108921;28;20434;-59
2022/04/10 10:02:06;;;;;;;1.20;0.50;;;10.00;1.00;;;;;;5109325;28;20424;-56
2022/04/10 10:04:35;;;;;;;0.90;0.60;;;10.10;1.00;;;;;;5098997;28;20433;-55
2022/04/10 10:07:06;;;;;;;1.00;0.52;;;9.80;1.00;;;;;;5113199;27;20428;-57
2022/04/10 10:09:33;;;;;;;0.70;0.50;;;9.80;1.00;;;;;;5114056;28;20847;-57
2022/04/10 10:12:01;;;;;;;1.98;0.60;;;9.80;1.00;;;;;;5111686;28;20431;-56
2022/04/10 10:14:31;;;;;;;1.10;0.60;;;9.80;1.00;;;;;;5101236;28;20416;-58
2022/04/10 10:16:58;;;;;;;0.80;0.50;;;9.70;1.00;;;;;;5109848;28;20428;-58
2022/04/10 10:19:26;;;;;;;0.95;0.60;;;9.90;1.00;;;;;;5111434;28;20433;-58
2022/04/10 10:21:53;;;;;;;1.27;0.70;;;10.50;1.00;;;;;;5111367;28;20427;-58
2022/04/10 10:24:25;;;;;;;0.90;0.60;;;11.20;1.00;;;;;;5111908;28;20428;-58
2022/04/10 10:27:08;;;;;;;2.67;0.60;;;11.20;1.00;;;;;;5115228;28;20902;-59
2022/04/10 10:29:54;;;;;;;1.00;0.70;;;11.20;1.00;;;;;;5105088;28;20460;-56
2022/04/10 10:32:39;;;;;;;1.10;0.50;;;11.00;1.00;;;;;;5113120;28;20867;-57
2022/04/10 10:35:07;;;;;;;1.20;0.60;;;10.10;1.00;;;;;;5106329;28;20429;-59
2022/04/10 10:37:49;;;;;;;1.80;0.70;;;9.80;1.00;;;;;;5109785;28;20669;-57
2022/04/10 10:40:19;;;;;;;2.20;0.95;;;9.70;1.00;;;;;;5099082;28;20474;-56
2022/04/10 10:42:46;;;;;;;1.40;0.80;;;9.80;1.00;;;;;;5111698;28;20755;-54
2022/04/10 10:45:36;;;;;;;1.00;0.70;;;9.70;1.00;;;;;;5115258;28;20436;-57
2022/04/10 10:48:40;;;;;;;2.30;1.00;;;9.70;1.00;;;;;;5115153;28;20852;-59
2022/04/10 10:51:42;;;;;;;1.40;0.70;;;9.40;1.00;;;;;;5100065;28;20442;-57
2022/04/10 10:54:12;;;;;;;1.90;1.02;;;9.50;1.00;;;;;;5012842;28;20510;-57
2022/04/10 10:56:42;;;;;;;1.20;0.80;;;9.60;1.00;;;;;;5090434;28;20443;-58
2022/04/10 10:59:39;;;;;;;1.77;0.90;;;9.70;1.00;;;;;;5114756;28;20906;-58
2022/04/10 11:02:10;;;;;;;1.20;0.80;;;9.60;1.00;;;;;;5073826;28;20431;-57
2022/04/10 11:04:42;;;;;;;1.30;0.90;;;9.40;1.00;;;;;;5114239;28;20436;-58
2022/04/10 11:07:14;;;;;;;1.65;1.10;;;9.50;1.00;;;;;;5113137;28;20420;-56
2022/04/10 11:09:55;;;;;;;3.20;0.90;;;9.40;1.00;;;;;;5110287;28;20523;-57
2022/04/10 11:12:29;;;;;;;2.28;0.70;;;9.50;1.00;;;;;;5108389;28;20419;-58
2022/04/10 11:14:56;;;;;;;1.45;0.60;;;9.90;1.00;;;;;;5111824;28;20534;-58
2022/04/10 11:17:29;;;;;;;1.50;0.60;;;10.60;1.00;;;;;;5100924;28;20440;-54
2022/04/10 11:20:00;;;;;;;1.50;0.70;;;10.70;1.00;;;;;;5111008;28;20435;-57
2022/04/10 11:22:34;;;;;;;1.00;0.50;;;10.50;1.00;;;;;;5114804;28;20477;-56
2022/04/10 11:25:06;;;;;;;1.10;0.80;;;10.20;1.00;;;;;;5109226;28;20431;-58
2022/04/10 11:27:56;;;;;;;1.10;0.80;;;10.10;1.00;;;;;;5114063;27;20515;-57
2022/04/10 11:30:25;;;;;;;1.30;0.80;;;10.20;1.00;;;;;;5104275;28;20906;-59
2022/04/10 11:32:53;;;;;;;1.67;0.70;;;9.80;1.00;;;;;;5104291;28;20501;-58
2022/04/10 11:35:23;;;;;;;1.30;0.70;;;9.90;1.00;;;;;;5103836;28;20458;-55
2022/04/10 11:37:51;;;;;;;1.50;0.70;;;9.90;1.00;;;;;;5104356;28;20493;-58
2022/04/10 11:40:20;;;;;;;1.70;0.70;;;9.80;1.00;;;;;;5097102;28;20436;-58
2022/04/10 11:42:47;;;;;;;1.00;0.70;;;10.00;1.00;;;;;;5101753;28;20457;-58
2022/04/10 11:45:16;;;;;;;1.20;0.70;;;10.20;1.00;;;;;;5105931;28;20858;-55
2022/04/10 11:47:43;;;;;;;1.60;0.77;;;10.50;1.00;;;;;;5109909;28;20428;-57
2022/04/10 11:50:13;;;;;;;1.20;0.70;;;11.00;1.00;;;;;;5107915;28;20716;-57
2022/04/10 11:52:41;;;;;;;1.85;0.70;;;11.70;1.00;;;;;;5106117;28;20452;-58
2022/04/10 11:55:09;;;;;;;1.30;0.70;;;12.10;1.00;;;;;;5100064;28;20459;-60
2022/04/10 11:57:39;;;;;;;1.08;0.70;;;12.10;1.00;;;;;;5095949;28;20408;-58
2022/04/10 12:00:09;;;;;;;1.00;0.70;;;11.80;1.00;;;;;;5111234;28;20839;-59
2022/04/10 12:02:39;;;;;;;1.00;0.70;;;11.70;1.00;;;;;;5100493;28;20914;-57
2022/04/10 12:05:09;;;;;;;1.50;0.80;;;11.30;1.00;;;;;;5101702;28;20430;-55
2022/04/10 12:07:40;;;;;;;1.15;0.80;;;10.60;1.00;;;;;;5100899;28;20437;-49
2022/04/10 12:10:07;;;;;;;1.10;0.80;;;10.40;1.00;;;;;;5100262;28;20642;-57
2022/04/10 12:12:39;;;;;;;1.30;0.70;;;10.30;1.00;;;;;;5106537;28;20515;-58
2022/04/10 12:15:18;;;;;;;1.30;0.90;;;10.30;1.00;;;;;;5094794;28;20722;-59
2022/04/10 12:17:47;;;;;;;1.75;0.80;;;10.50;1.00;;;;;;5103920;28;20414;-58
2022/04/10 12:20:14;;;;;;;1.60;0.80;;;10.70;1.00;;;;;;5103173;28;20523;-58
2022/04/10 12:22:42;;;;;;;1.10;0.70;;;11.20;1.00;;;;;;5102180;28;20754;-61
2022/04/10 12:25:10;;;;;;;1.20;0.60;;;11.50;1.00;;;;;;5104446;28;20463;-59
2022/04/10 12:27:37;;;;;;;0.90;0.40;;;11.70;1.00;;;;;;5100440;28;20472;-58
2022/04/10 12:30:10;;;;;;;0.90;0.50;;;12.00;1.00;;;;;;5099310;28;20440;-60
2022/04/10 12:32:38;;;;;;;0.80;0.50;;;12.20;1.00;;;;;;5109505;28;20902;-60
2022/04/10 12:35:11;;;;;;;0.98;0.60;;;12.60;1.00;;;;;;5107467;28;20550;-59
2022/04/10 12:37:44;;;;;;;0.93;0.60;;;12.90;1.00;;;;;;5106594;28;20731;-60
2022/04/10 12:40:12;;;;;;;2.80;0.70;;;12.90;1.00;;;;;;5104641;27;20438;-60
2022/04/10 12:42:41;;;;;;;1.00;0.60;;;12.90;1.00;;;;;;5109888;28;20415;-59
2022/04/10 12:45:10;;;;;;;1.00;0.70;;;12.60;1.00;;;;;;5105089;28;20894;-61
2022/04/10 12:47:46;;;;;;;1.13;0.70;;;12.30;1.00;;;;;;5099566;28;20440;-61
2022/04/10 12:50:17;;;;;;;1.50;0.80;;;12.20;1.00;;;;;;5109665;28;20464;-59
2022/04/10 12:52:45;;;;;;;1.90;0.70;;;12.20;1.00;;;;;;5094808;28;20426;-61
2022/04/10 12:55:20;;;;;;;1.88;0.73;;;12.30;1.00;;;;;;5104808;28;20428;-58
2022/04/10 12:57:57;;;;;;;1.33;0.75;;;12.80;1.00;;;;;;5094151;28;20465;-59
2022/04/10 13:00:26;;;;;;;0.80;0.60;;;13.30;1.00;;;;;;5099109;28;20446;-60
2022/04/10 13:02:53;;;;;;;1.30;0.60;;;13.30;1.00;;;;;;5096476;28;20507;-61
2022/04/10 13:05:22;;;;;;;1.02;0.63;;;13.20;1.00;;;;;;5103277;28;20436;-60
2022/04/10 13:08:00;;;;;;;0.98;0.70;;;13.20;1.00;;;;;;5101840;28;20428;-60
2022/04/10 13:10:28;;;;;;;1.10;0.60;;;13.30;1.00;;;;;;5102477;28;20719;-59
2022/04/10 13:13:06;;;;;;;1.00;0.60;;;13.30;1.00;;;;;;5093449;28;20934;-60
2022/04/10 13:15:35;;;;;;;0.90;0.60;;;13.40;1.00;;;;;;5094722;28;20476;-59
2022/04/10 13:18:03;;;;;;;1.90;0.70;;;13.60;1.00;;;;;;5111893;28;20477;-60